Lake of the Forest, Kansas
Current Conditions -  °F | °C
As of 9:53 AM on Saturday 25 Oct 2014 (Local Time) from KIXD Reporting Station
Haze Haze  
Wind Chill: 57°   Ceiling: 100
Heat Index: 57°   Visibility: 1mi
Dew Point: 56°   Wind: 5mph
Humidity: 96%   Direction: 210°SSW
Pressure: 30.09"   Gusts: NA
Location:  39.0619°N, 94.8881°W
Report Text: KIXD 251453Z 21004KT 1SM BR VV001 14/13 A3009 RMK AO2 SLP185 T01390133 51008 $
Loading
Personal Weather Stations






























Interactive Weather Map New forecast layout! Learn more

10-Day Weather Forecast

Advertisements
Track Severe Weather on mobile